This is the latest recevied weather packets stored in our database for station/object KC3JUG-3. If no packets are shown the sender has not sent any weather packets the latest 10 day(s).
| Time | Temp. | Humidity | Pressure | Rain* | Wind** | Luminosity | Snow |
|---|---|---|---|---|---|---|---|
| 1777881050 | 11.11° C | 48% | 1015.9 hPa | 0 mm | - | - | - |
| 1777880149 | 11.11° C | 47% | 1015.9 hPa | 0 mm | - | - | - |
| 1777879248 | 11.67° C | 46% | 1015.9 hPa | 0 mm | - | - | - |
| 1777877165 | 11.67° C | 46% | 1015.9 hPa | 0 mm | - | - | - |
| 1777876267 | 11.67° C | 47% | 1015.8 hPa | 0 mm | - | - | - |
| 1777873551 | 11.67° C | 46% | 1015.9 hPa | 0 mm | - | - | - |
| 1777872948 | 11.67° C | 46% | 1015.9 hPa | 0 mm | - | - | - |
| 1777872661 | 11.67° C | 46% | 1015.9 hPa | 0 mm | - | - | - |
| 1777871147 | 12.22° C | 46% | 1016 hPa | 0 mm | - | - | - |
| 1777869648 | 11.67° C | 46% | 1016 hPa | 0 mm | - | - | - |
| 1777866650 | 11.67° C | 47% | 1015.7 hPa | 0 mm | - | - | - |
| 1777866047 | 11.67° C | 46% | 1015.7 hPa | 0 mm | - | - | - |
| 1777865457 | 11.67° C | 46% | 1015.6 hPa | 0 mm | - | - | - |
| 1777863653 | 11.67° C | 47% | 1015.5 hPa | 0 mm | - | - | - |
| 1777862753 | 11.67° C | 47% | 1015.4 hPa | 0 mm | - | - | - |
| 1777860052 | 11.11° C | 49% | 1015.6 hPa | 0 mm | - | - | - |
| 1777858846 | 10° C | 55% | 1015.4 hPa | 0 mm | - | - | - |
| 1777857353 | 10° C | 54% | 1015.2 hPa | 0 mm | - | - | - |
| 1777856747 | 10.56° C | 55% | 1015.2 hPa | 0 mm | - | - | - |
| 1777856147 | 10.56° C | 54% | 1015.2 hPa | 0 mm | - | - | - |
| 1777855847 | 10.56° C | 53% | 1015.1 hPa | 0 mm | - | - | - |
| 1777854648 | 11.11° C | 53% | 1014.9 hPa | 0 mm | - | - | - |
| 1777852858 | 12.22° C | 46% | 1014.4 hPa | 0 mm | - | - | - |
| 1777851347 | 13.33° C | 44% | 1014.2 hPa | 0 mm | - | - | - |
| 1777850748 | 13.33° C | 42% | 1014.2 hPa | 0 mm | - | - | - |
* Rain latest hour (hover to see other rain measurements)
** Current wind speed in m/s (hover to see current wind gust speed)